Sept-Iles, Canada
Current Conditions -  °F | °C
As of 7:00 PM on Thursday 27 Nov 2014 (Local Time) from CYZV Reporting Station
Broken Clouds Broken Clouds  
Wind Chill:   Ceiling: 14000
Heat Index: 14°   Visibility: 15mi
Dew Point:   Wind: 8mph
Humidity: 53%   Direction: 10°N
Pressure: 29.98"   Gusts: NA
Location:  50.21°N, 66.39°W
Report Text: CYZV 280000Z 01007KT 15SM BKN140 M10/M18 A2998 RMK AS6 SLP158
Loading
Personal Weather Stations






























Interactive Weather Map New forecast layout! Learn more

10-Day Weather Forecast

Advertisements
Track Severe Weather on mobile